CheckWX is a tool to help pilots better visualize weather data.  It is not intended as a substitute for an official pre-flight weather briefing.

12:22:10 UTC

KMKL TAF
Mc Kellar-Sipes Regional Airport
Jackson, Tennessee, USA
KMKL 221125Z 2212/2312 VRB03KT P6SM SKC FM221600 30009KT P6SM SCT250 FM230000 VRB02KT P6SM BKN250

Mar-22@
12:00 UTC

Mar-22 @ 12:00 UTC

Mar-22@
16:00 UTC

Mar-22 @ 16:00 UTC

KMKL 221125Z 2212/2312 VRB03KT P6SM SKC
Wind
  • Variable at 3 KTS
Cloud Levels
  • Clear skies

Mar-22@
16:00 UTC

Mar-22 @ 16:00 UTC

Mar-23@
00:00 UTC

Mar-23 @ 00:00 UTC

FM221600 30009KT P6SM SCT250

From

From Standard forecast or significant change

Wind
  • 300° at 9 KTS
Cloud Levels
  • Scattered at 25,000' AGL

Mar-23@
00:00 UTC

Mar-23 @ 00:00 UTC

Mar-23@
12:00 UTC

Mar-23 @ 12:00 UTC

FM230000 VRB02KT P6SM BKN250

From

From Standard forecast or significant change

Wind
  • Variable at 2 KTS
Cloud Levels
  • Broken at 25,000' AGL